sensor_id;sensor_type;location;lat;lon;timestamp;pressure;altitude;pressure_sealevel;temperature;humidity
13434;BME280;6789;47.678;9.158;2023-01-30T00:00:05;97590.59;;;-1.02;91.26
13434;BME280;6789;47.678;9.158;2023-01-30T00:05:11;97592.38;;;-1.02;91.33
13434;BME280;6789;47.678;9.158;2023-01-30T00:10:03;97589.13;;;-0.95;91.18
13434;BME280;6789;47.678;9.158;2023-01-30T00:14:55;97574.53;;;-0.94;91.23
13434;BME280;6789;47.678;9.158;2023-01-30T00:19:47;97568.00;;;-0.89;91.06
13434;BME280;6789;47.678;9.158;2023-01-30T00:24:38;97569.63;;;-0.88;90.87
13434;BME280;6789;47.678;9.158;2023-01-30T00:29:30;97562.06;;;-0.89;91.12
13434;BME280;6789;47.678;9.158;2023-01-30T00:34:22;97556.78;;;-0.88;91.13
13434;BME280;6789;47.678;9.158;2023-01-30T00:39:14;97559.34;;;-0.88;91.27
13434;BME280;6789;47.678;9.158;2023-01-30T00:44:06;97551.22;;;-0.93;91.26
13434;BME280;6789;47.678;9.158;2023-01-30T00:49:18;97534.00;;;-1.02;91.40
13434;BME280;6789;47.678;9.158;2023-01-30T00:54:10;97527.13;;;-0.92;91.12
13434;BME280;6789;47.678;9.158;2023-01-30T00:59:02;97528.84;;;-0.92;91.33
13434;BME280;6789;47.678;9.158;2023-01-30T01:03:54;97523.06;;;-0.85;90.85
13434;BME280;6789;47.678;9.158;2023-01-30T01:08:45;97526.84;;;-0.89;91.15
13434;BME280;6789;47.678;9.158;2023-01-30T01:13:37;97531.56;;;-0.94;91.09
13434;BME280;6789;47.678;9.158;2023-01-30T01:18:29;97524.69;;;-1.03;91.56
13434;BME280;6789;47.678;9.158;2023-01-30T01:23:21;97517.78;;;-0.93;91.40
13434;BME280;6789;47.678;9.158;2023-01-30T01:28:13;97517.22;;;-1.06;91.81
13434;BME280;6789;47.678;9.158;2023-01-30T01:33:06;97510.59;;;-0.99;92.00
13434;BME280;6789;47.678;9.158;2023-01-30T01:37:58;97502.19;;;-1.01;91.66
13434;BME280;6789;47.678;9.158;2023-01-30T01:42:50;97496.91;;;-1.09;92.17
13434;BME280;6789;47.678;9.158;2023-01-30T01:48:04;97487.69;;;-1.11;92.52
13434;BME280;6789;47.678;9.158;2023-01-30T01:53:00;97489.19;;;-1.09;92.68
13434;BME280;6789;47.678;9.158;2023-01-30T01:58:14;97485.66;;;-1.08;92.33
13434;BME280;6789;47.678;9.158;2023-01-30T02:03:12;97484.72;;;-0.97;92.39
13434;BME280;6789;47.678;9.158;2023-01-30T02:08:11;97487.28;;;-0.78;91.51
13434;BME280;6789;47.678;9.158;2023-01-30T02:13:05;97494.31;;;-0.71;91.21
13434;BME280;6789;47.678;9.158;2023-01-30T02:17:56;97506.66;;;-0.65;90.79
13434;BME280;6789;47.678;9.158;2023-01-30T02:40:02;97502.19;;;-0.63;90.71
13434;BME280;6789;47.678;9.158;2023-01-30T02:45:10;97510.31;;;-0.58;90.70
13434;BME280;6789;47.678;9.158;2023-01-30T02:50:24;97530.50;;;-0.63;90.80
13434;BME280;6789;47.678;9.158;2023-01-30T02:55:27;97534.16;;;-0.66;91.34
13434;BME280;6789;47.678;9.158;2023-01-30T03:00:32;97538.22;;;-0.63;91.51
13434;BME280;6789;47.678;9.158;2023-01-30T03:05:50;97530.91;;;-0.58;91.69
13434;BME280;6789;47.678;9.158;2023-01-30T03:11:06;97548.81;;;-0.57;91.53
13434;BME280;6789;47.678;9.158;2023-01-30T03:16:07;97552.72;;;-0.53;91.33
13434;BME280;6789;47.678;9.158;2023-01-30T03:21:06;97567.78;;;-0.48;91.25
13434;BME280;6789;47.678;9.158;2023-01-30T03:26:01;97575.75;;;-0.32;91.52
13434;BME280;6789;47.678;9.158;2023-01-30T03:30:55;97545.53;;;-0.21;90.96
13434;BME280;6789;47.678;9.158;2023-01-30T03:35:48;97530.44;;;-0.06;90.94
13434;BME280;6789;47.678;9.158;2023-01-30T03:40:40;97531.94;;;-0.13;89.62
13434;BME280;6789;47.678;9.158;2023-01-30T03:45:32;97550.66;;;-0.11;89.07
13434;BME280;6789;47.678;9.158;2023-01-30T03:50:23;97523.81;;;-0.18;89.28
13434;BME280;6789;47.678;9.158;2023-01-30T03:55:15;97567.31;;;-0.15;89.04
13434;BME280;6789;47.678;9.158;2023-01-30T04:00:09;97558.00;;;-0.16;88.97
13434;BME280;6789;47.678;9.158;2023-01-30T04:05:01;97535.59;;;-0.16;89.69
13434;BME280;6789;47.678;9.158;2023-01-30T04:09:53;97532.34;;;-0.18;89.94
13434;BME280;6789;47.678;9.158;2023-01-30T04:14:45;97567.88;;;-0.21;89.73
13434;BME280;6789;47.678;9.158;2023-01-30T04:19:37;97584.44;;;-0.33;90.27
13434;BME280;6789;47.678;9.158;2023-01-30T04:24:28;97582.00;;;-0.35;90.27
13434;BME280;6789;47.678;9.158;2023-01-30T04:29:20;97587.16;;;-0.44;91.31
13434;BME280;6789;47.678;9.158;2023-01-30T04:34:12;97540.09;;;-0.46;91.58
13434;BME280;6789;47.678;9.158;2023-01-30T04:39:03;97520.47;;;-0.47;91.55
13434;BME280;6789;47.678;9.158;2023-01-30T04:43:55;97482.94;;;-0.50;92.01
13434;BME280;6789;47.678;9.158;2023-01-30T04:48:47;97465.06;;;-0.70;92.63
13434;BME280;6789;47.678;9.158;2023-01-30T04:53:38;97468.31;;;-0.77;93.10
13434;BME280;6789;47.678;9.158;2023-01-30T04:58:30;97460.59;;;-0.68;92.61
13434;BME280;6789;47.678;9.158;2023-01-30T05:03:22;97468.47;;;-0.79;93.71
13434;BME280;6789;47.678;9.158;2023-01-30T05:08:15;97491.09;;;-0.64;93.02
13434;BME280;6789;47.678;9.158;2023-01-30T05:13:21;97511.13;;;-0.58;92.36
13434;BME280;6789;47.678;9.158;2023-01-30T05:18:27;97483.47;;;-0.65;92.87
13434;BME280;6789;47.678;9.158;2023-01-30T05:23:32;97510.59;;;-0.61;92.51
13434;BME280;6789;47.678;9.158;2023-01-30T05:28:28;97499.47;;;-0.62;92.94
13434;BME280;6789;47.678;9.158;2023-01-30T05:33:28;97505.69;;;-0.64;92.47
13434;BME280;6789;47.678;9.158;2023-01-30T05:38:45;97487.44;;;-0.71;92.52
13434;BME280;6789;47.678;9.158;2023-01-30T05:43:51;97478.06;;;-0.72;92.31
13434;BME280;6789;47.678;9.158;2023-01-30T05:48:57;97500.44;;;-0.81;92.59
13434;BME280;6789;47.678;9.158;2023-01-30T05:54:03;97509.66;;;-0.79;93.49
13434;BME280;6789;47.678;9.158;2023-01-30T05:58:55;97496.50;;;-0.67;92.30
13434;BME280;6789;47.678;9.158;2023-01-30T06:03:54;97499.75;;;-0.55;90.59
13434;BME280;6789;47.678;9.158;2023-01-30T06:09:01;97496.09;;;-0.62;90.16
13434;BME280;6789;47.678;9.158;2023-01-30T06:14:06;97482.13;;;-0.60;90.35
13434;BME280;6789;47.678;9.158;2023-01-30T06:19:12;97477.25;;;-0.63;91.47
13434;BME280;6789;47.678;9.158;2023-01-30T06:24:18;97495.81;;;-0.59;90.96
13434;BME280;6789;47.678;9.158;2023-01-30T06:29:24;97480.25;;;-0.67;91.25
13434;BME280;6789;47.678;9.158;2023-01-30T06:34:18;97463.72;;;-0.74;91.23
13434;BME280;6789;47.678;9.158;2023-01-30T06:39:12;97470.50;;;-0.64;90.83
13434;BME280;6789;47.678;9.158;2023-01-30T06:44:18;97490.53;;;-0.48;89.36
13434;BME280;6789;47.678;9.158;2023-01-30T06:49:24;97505.03;;;-0.47;89.65
13434;BME280;6789;47.678;9.158;2023-01-30T06:54:17;97526.97;;;-0.53;89.90
13434;BME280;6789;47.678;9.158;2023-01-30T06:59:22;97555.16;;;-0.51;90.74
13434;BME280;6789;47.678;9.158;2023-01-30T07:04:28;97540.53;;;-0.51;91.67
13434;BME280;6789;47.678;9.158;2023-01-30T07:09:34;97541.09;;;-0.66;92.14
13434;BME280;6789;47.678;9.158;2023-01-30T07:14:40;97549.47;;;-0.73;92.11
13434;BME280;6789;47.678;9.158;2023-01-30T07:19:46;97554.50;;;-0.72;92.58
13434;BME280;6789;47.678;9.158;2023-01-30T07:24:43;97557.72;;;-0.70;92.73
13434;BME280;6789;47.678;9.158;2023-01-30T07:29:49;97569.13;;;-0.63;92.16
13434;BME280;6789;47.678;9.158;2023-01-30T07:34:54;97575.09;;;-0.63;91.50
13434;BME280;6789;47.678;9.158;2023-01-30T07:40:01;97574.56;;;-0.57;91.53
13434;BME280;6789;47.678;9.158;2023-01-30T07:45:07;97566.16;;;-0.59;91.68
13434;BME280;6789;47.678;9.158;2023-01-30T07:50:13;97556.94;;;-0.42;91.11
13434;BME280;6789;47.678;9.158;2023-01-30T07:55:20;97517.88;;;-0.28;90.12
13434;BME280;6789;47.678;9.158;2023-01-30T08:00:28;97516.09;;;-0.18;89.63
13434;BME280;6789;47.678;9.158;2023-01-30T08:05:34;97522.56;;;-0.14;90.32
13434;BME280;6789;47.678;9.158;2023-01-30T08:10:40;97545.75;;;-0.05;89.52
13434;BME280;6789;47.678;9.158;2023-01-30T08:15:46;97558.91;;;0.01;89.16
13434;BME280;6789;47.678;9.158;2023-01-30T08:21:02;97557.59;;;0.24;88.40
13434;BME280;6789;47.678;9.158;2023-01-30T08:26:08;97563.31;;;0.28;87.31
13434;BME280;6789;47.678;9.158;2023-01-30T08:31:16;97553.53;;;0.31;86.76
13434;BME280;6789;47.678;9.158;2023-01-30T08:36:22;97568.03;;;0.32;86.85
13434;BME280;6789;47.678;9.158;2023-01-30T08:41:28;97580.09;;;0.32;86.58
13434;BME280;6789;47.678;9.158;2023-01-30T08:46:34;97570.50;;;0.24;86.85
13434;BME280;6789;47.678;9.158;2023-01-30T08:51:40;97552.06;;;0.19;87.31
13434;BME280;6789;47.678;9.158;2023-01-30T08:56:47;97548.25;;;0.23;86.76
13434;BME280;6789;47.678;9.158;2023-01-30T09:01:56;97556.22;;;0.39;86.72
13434;BME280;6789;47.678;9.158;2023-01-30T09:07:02;97587.63;;;0.62;85.29
13434;BME280;6789;47.678;9.158;2023-01-30T09:12:08;97601.34;;;0.89;84.40
13434;BME280;6789;47.678;9.158;2023-01-30T09:17:02;97586.34;;;1.02;83.78
13434;BME280;6789;47.678;9.158;2023-01-30T09:22:08;97569.81;;;0.95;83.64
13434;BME280;6789;47.678;9.158;2023-01-30T09:27:14;97585.19;;;1.14;83.14
13434;BME280;6789;47.678;9.158;2023-01-30T09:32:20;97600.47;;;1.25;82.34
13434;BME280;6789;47.678;9.158;2023-01-30T09:37:26;97617.06;;;1.39;82.44
13434;BME280;6789;47.678;9.158;2023-01-30T09:54:35;97588.06;;;1.80;79.95
13434;BME280;6789;47.678;9.158;2023-01-30T10:00:02;97579.91;;;2.10;79.79
13434;BME280;6789;47.678;9.158;2023-01-30T10:05:04;97568.06;;;2.33;78.49
13434;BME280;6789;47.678;9.158;2023-01-30T10:10:37;97551.69;;;2.50;76.58
13434;BME280;6789;47.678;9.158;2023-01-30T10:21:46;97563.16;;;2.22;77.17
13434;BME280;6789;47.678;9.158;2023-01-30T10:26:58;97563.50;;;2.27;77.17
13434;BME280;6789;47.678;9.158;2023-01-30T10:32:15;97551.38;;;2.53;76.41
13434;BME280;6789;47.678;9.158;2023-01-30T10:43:18;97528.47;;;2.66;76.49
13434;BME280;6789;47.678;9.158;2023-01-30T10:48:53;97509.38;;;2.67;75.48
13434;BME280;6789;47.678;9.158;2023-01-30T10:54:20;97478.50;;;2.81;74.01
13434;BME280;6789;47.678;9.158;2023-01-30T10:59:56;97456.97;;;2.73;74.05
13434;BME280;6789;47.678;9.158;2023-01-30T11:05:15;97457.63;;;2.82;72.36
13434;BME280;6789;47.678;9.158;2023-01-30T11:10:29;97457.50;;;2.84;72.28
13434;BME280;6789;47.678;9.158;2023-01-30T11:15:41;97433.91;;;3.03;72.52
13434;BME280;6789;47.678;9.158;2023-01-30T11:21:06;97429.34;;;3.13;72.12
13434;BME280;6789;47.678;9.158;2023-01-30T11:26:33;97412.66;;;3.47;71.06
13434;BME280;6789;47.678;9.158;2023-01-30T11:31:40;97409.59;;;3.52;70.90
13434;BME280;6789;47.678;9.158;2023-01-30T11:37:37;97401.59;;;3.77;71.26
13434;BME280;6789;47.678;9.158;2023-01-30T11:42:48;97402.09;;;3.72;70.27
13434;BME280;6789;47.678;9.158;2023-01-30T11:48:25;97394.03;;;3.52;71.76
13434;BME280;6789;47.678;9.158;2023-01-30T11:58:58;97377.84;;;4.04;69.73
13434;BME280;6789;47.678;9.158;2023-01-30T12:04:10;97389.38;;;4.39;69.10
13434;BME280;6789;47.678;9.158;2023-01-30T12:09:36;97393.19;;;4.51;68.76
13434;BME280;6789;47.678;9.158;2023-01-30T12:14:51;97366.00;;;4.39;68.29
13434;BME280;6789;47.678;9.158;2023-01-30T12:26:14;97380.84;;;4.23;69.27
13434;BME280;6789;47.678;9.158;2023-01-30T12:31:34;97382.06;;;4.43;70.07
13434;BME280;6789;47.678;9.158;2023-01-30T12:48:19;97355.31;;;4.65;69.10
13434;BME280;6789;47.678;9.158;2023-01-30T12:54:21;97365.31;;;4.45;69.18
13434;BME280;6789;47.678;9.158;2023-01-30T13:00:02;97342.22;;;4.28;69.36
13434;BME280;6789;47.678;9.158;2023-01-30T13:05:59;97342.34;;;4.34;69.98
13434;BME280;6789;47.678;9.158;2023-01-30T13:21:36;97336.41;;;4.26;69.87
13434;BME280;6789;47.678;9.158;2023-01-30T13:26:52;97321.34;;;4.22;70.53
13434;BME280;6789;47.678;9.158;2023-01-30T13:32:37;97330.25;;;4.27;69.18
13434;BME280;6789;47.678;9.158;2023-01-30T13:37:51;97336.66;;;4.09;69.86
13434;BME280;6789;47.678;9.158;2023-01-30T13:43:28;97335.00;;;4.16;70.32
13434;BME280;6789;47.678;9.158;2023-01-30T13:49:22;97323.53;;;4.32;70.18
13434;BME280;6789;47.678;9.158;2023-01-30T13:55:05;97315.03;;;4.46;70.26
13434;BME280;6789;47.678;9.158;2023-01-30T14:11:48;97324.03;;;4.58;70.25
13434;BME280;6789;47.678;9.158;2023-01-30T14:17:15;97316.88;;;4.60;69.90
13434;BME280;6789;47.678;9.158;2023-01-30T14:22:29;97326.41;;;4.68;69.90
13434;BME280;6789;47.678;9.158;2023-01-30T14:27:38;97321.84;;;4.47;70.55
13434;BME280;6789;47.678;9.158;2023-01-30T14:38:16;97354.75;;;4.77;69.93
13434;BME280;6789;47.678;9.158;2023-01-30T14:48:55;97365.78;;;4.79;70.75
13434;BME280;6789;47.678;9.158;2023-01-30T14:59:35;97359.69;;;4.64;71.79
13434;BME280;6789;47.678;9.158;2023-01-30T15:05:03;97374.13;;;4.67;72.76
13434;BME280;6789;47.678;9.158;2023-01-30T15:10:40;97384.19;;;4.70;72.55
13434;BME280;6789;47.678;9.158;2023-01-30T15:32:31;97416.56;;;4.51;75.40
13434;BME280;6789;47.678;9.158;2023-01-30T15:38:32;97422.13;;;4.48;76.56
13434;BME280;6789;47.678;9.158;2023-01-30T15:44:23;97423.13;;;4.39;77.22
13434;BME280;6789;47.678;9.158;2023-01-30T15:54:58;97449.81;;;4.18;79.29
13434;BME280;6789;47.678;9.158;2023-01-30T16:00:25;97459.53;;;4.16;79.86
13434;BME280;6789;47.678;9.158;2023-01-30T16:05:33;97469.50;;;3.96;81.15
13434;BME280;6789;47.678;9.158;2023-01-30T16:10:45;97476.78;;;3.93;82.28
13434;BME280;6789;47.678;9.158;2023-01-30T16:16:22;97495.94;;;3.92;83.49
13434;BME280;6789;47.678;9.158;2023-01-30T16:21:37;97486.53;;;3.83;85.77
13434;BME280;6789;47.678;9.158;2023-01-30T16:26:58;97491.56;;;3.84;87.01
13434;BME280;6789;47.678;9.158;2023-01-30T16:32:13;97503.88;;;3.82;88.81
13434;BME280;6789;47.678;9.158;2023-01-30T16:42:27;97518.97;;;3.55;92.29
13434;BME280;6789;47.678;9.158;2023-01-30T16:47:33;97523.97;;;3.56;93.58
13434;BME280;6789;47.678;9.158;2023-01-30T16:52:51;97543.72;;;3.42;95.45
13434;BME280;6789;47.678;9.158;2023-01-30T16:58:02;97552.78;;;3.38;96.31
13434;BME280;6789;47.678;9.158;2023-01-30T17:03:27;97543.22;;;3.30;97.58
13434;BME280;6789;47.678;9.158;2023-01-30T17:08:44;97558.91;;;3.29;98.53
13434;BME280;6789;47.678;9.158;2023-01-30T17:19:19;97575.28;;;3.29;99.03
13434;BME280;6789;47.678;9.158;2023-01-30T17:24:25;97588.41;;;3.28;98.93
13434;BME280;6789;47.678;9.158;2023-01-30T17:29:32;97589.22;;;3.28;99.95
13434;BME280;6789;47.678;9.158;2023-01-30T17:34:39;97598.28;;;3.32;99.63
13434;BME280;6789;47.678;9.158;2023-01-30T17:39:49;97611.06;;;3.26;100.00
13434;BME280;6789;47.678;9.158;2023-01-30T17:44:56;97619.75;;;3.50;99.12
13434;BME280;6789;47.678;9.158;2023-01-30T17:50:04;97618.09;;;3.57;99.07
13434;BME280;6789;47.678;9.158;2023-01-30T17:55:12;97633.50;;;3.51;99.08
13434;BME280;6789;47.678;9.158;2023-01-30T18:00:20;97630.72;;;3.36;100.00
13434;BME280;6789;47.678;9.158;2023-01-30T18:05:26;97625.19;;;3.31;100.00
13434;BME280;6789;47.678;9.158;2023-01-30T18:10:26;97634.19;;;3.11;100.00
13434;BME280;6789;47.678;9.158;2023-01-30T18:15:33;97628.28;;;3.01;100.00
13434;BME280;6789;47.678;9.158;2023-01-30T18:20:38;97636.06;;;2.93;100.00
13434;BME280;6789;47.678;9.158;2023-01-30T18:25:46;97646.41;;;2.93;100.00
13434;BME280;6789;47.678;9.158;2023-01-30T18:30:52;97653.56;;;3.07;100.00
13434;BME280;6789;47.678;9.158;2023-01-30T18:35:58;97644.66;;;3.02;100.00
13434;BME280;6789;47.678;9.158;2023-01-30T18:41:28;97646.41;;;2.93;100.00
13434;BME280;6789;47.678;9.158;2023-01-30T18:46:34;97634.09;;;2.95;100.00
13434;BME280;6789;47.678;9.158;2023-01-30T18:51:40;97634.41;;;2.92;100.00
13434;BME280;6789;47.678;9.158;2023-01-30T18:56:46;97641.94;;;3.11;100.00
13434;BME280;6789;47.678;9.158;2023-01-30T19:01:52;97652.50;;;3.18;100.00
13434;BME280;6789;47.678;9.158;2023-01-30T19:06:58;97656.44;;;2.96;100.00
13434;BME280;6789;47.678;9.158;2023-01-30T19:12:06;97665.44;;;2.84;100.00
13434;BME280;6789;47.678;9.158;2023-01-30T19:17:31;97666.72;;;2.81;100.00
13434;BME280;6789;47.678;9.158;2023-01-30T19:22:38;97669.25;;;2.73;100.00
13434;BME280;6789;47.678;9.158;2023-01-30T19:27:44;97658.47;;;2.77;100.00
13434;BME280;6789;47.678;9.158;2023-01-30T19:32:51;97671.25;;;2.79;100.00
13434;BME280;6789;47.678;9.158;2023-01-30T19:38:02;97675.50;;;2.87;100.00
13434;BME280;6789;47.678;9.158;2023-01-30T19:43:12;97669.44;;;3.04;100.00
13434;BME280;6789;47.678;9.158;2023-01-30T19:48:18;97667.47;;;2.98;100.00
13434;BME280;6789;47.678;9.158;2023-01-30T19:53:24;97682.16;;;2.90;100.00
13434;BME280;6789;47.678;9.158;2023-01-30T19:58:29;97690.72;;;2.90;100.00
13434;BME280;6789;47.678;9.158;2023-01-30T20:03:37;97723.53;;;3.07;100.00
13434;BME280;6789;47.678;9.158;2023-01-30T20:08:47;97729.88;;;3.13;100.00
13434;BME280;6789;47.678;9.158;2023-01-30T20:13:55;97733.13;;;3.15;100.00
13434;BME280;6789;47.678;9.158;2023-01-30T20:19:06;97742.38;;;3.17;100.00
13434;BME280;6789;47.678;9.158;2023-01-30T20:24:14;97754.66;;;3.15;100.00
13434;BME280;6789;47.678;9.158;2023-01-30T20:29:20;97752.69;;;3.09;100.00
13434;BME280;6789;47.678;9.158;2023-01-30T20:34:29;97752.53;;;3.11;100.00
13434;BME280;6789;47.678;9.158;2023-01-30T20:39:38;97753.13;;;3.05;100.00
13434;BME280;6789;47.678;9.158;2023-01-30T20:44:44;97755.38;;;3.00;100.00
13434;BME280;6789;47.678;9.158;2023-01-30T20:49:50;97761.41;;;2.83;100.00
13434;BME280;6789;47.678;9.158;2023-01-30T20:54:56;97760.59;;;2.82;100.00
13434;BME280;6789;47.678;9.158;2023-01-30T21:00:02;97770.00;;;2.83;100.00
13434;BME280;6789;47.678;9.158;2023-01-30T21:05:09;97759.34;;;2.86;100.00
13434;BME280;6789;47.678;9.158;2023-01-30T21:10:16;97776.50;;;2.87;100.00
13434;BME280;6789;47.678;9.158;2023-01-30T21:15:21;97774.06;;;2.86;100.00
13434;BME280;6789;47.678;9.158;2023-01-30T21:20:27;97767.41;;;2.83;100.00
13434;BME280;6789;47.678;9.158;2023-01-30T21:25:34;97763.50;;;2.80;100.00
13434;BME280;6789;47.678;9.158;2023-01-30T21:30:40;97778.09;;;2.88;100.00
13434;BME280;6789;47.678;9.158;2023-01-30T21:35:46;97783.59;;;2.85;100.00
13434;BME280;6789;47.678;9.158;2023-01-30T21:40:53;97789.50;;;2.95;100.00
13434;BME280;6789;47.678;9.158;2023-01-30T21:46:18;97791.81;;;2.98;100.00
13434;BME280;6789;47.678;9.158;2023-01-30T21:51:24;97800.47;;;2.89;100.00
13434;BME280;6789;47.678;9.158;2023-01-30T21:56:31;97804.84;;;2.89;100.00
13434;BME280;6789;47.678;9.158;2023-01-30T22:01:38;97806.25;;;2.83;100.00
13434;BME280;6789;47.678;9.158;2023-01-30T22:06:44;97796.13;;;2.73;100.00
13434;BME280;6789;47.678;9.158;2023-01-30T22:11:50;97805.25;;;2.59;100.00
13434;BME280;6789;47.678;9.158;2023-01-30T22:16:56;97804.22;;;2.52;100.00
13434;BME280;6789;47.678;9.158;2023-01-30T22:22:02;97804.97;;;2.45;100.00
13434;BME280;6789;47.678;9.158;2023-01-30T22:27:16;97798.06;;;2.36;100.00
13434;BME280;6789;47.678;9.158;2023-01-30T22:32:22;97804.03;;;2.19;100.00
13434;BME280;6789;47.678;9.158;2023-01-30T22:37:28;97801.66;;;2.08;100.00
13434;BME280;6789;47.678;9.158;2023-01-30T22:43:02;97801.66;;;2.08;100.00
13434;BME280;6789;47.678;9.158;2023-01-30T22:48:09;97800.03;;;2.07;100.00
13434;BME280;6789;47.678;9.158;2023-01-30T22:53:15;97794.53;;;1.93;100.00
13434;BME280;6789;47.678;9.158;2023-01-30T22:58:20;97802.94;;;1.68;100.00
13434;BME280;6789;47.678;9.158;2023-01-30T23:03:26;97794.28;;;1.59;100.00
13434;BME280;6789;47.678;9.158;2023-01-30T23:08:36;97789.03;;;1.51;100.00
13434;BME280;6789;47.678;9.158;2023-01-30T23:13:46;97792.66;;;1.85;100.00
13434;BME280;6789;47.678;9.158;2023-01-30T23:18:53;97790.72;;;1.70;100.00
13434;BME280;6789;47.678;9.158;2023-01-30T23:29:17;97801.56;;;1.46;100.00
13434;BME280;6789;47.678;9.158;2023-01-30T23:34:23;97796.44;;;1.28;100.00
13434;BME280;6789;47.678;9.158;2023-01-30T23:39:29;97810.09;;;1.56;100.00
13434;BME280;6789;47.678;9.158;2023-01-30T23:44:35;97801.41;;;1.57;100.00
13434;BME280;6789;47.678;9.158;2023-01-30T23:49:41;97794.88;;;1.53;100.00
13434;BME280;6789;47.678;9.158;2023-01-30T23:54:46;97792.16;;;1.55;100.00
13434;BME280;6789;47.678;9.158;2023-01-30T23:59:55;97787.38;;;1.60;100.00
